Forth Bay — V7SU6 — position and weather

sailwx.info

Track history (hours):
 
Tides and Currents Weather Stations Pressure Air Temp Water Temp Dewpoint Dewpoint Depression Visibility Wind Speed Wind Dir Waves Ship Positions

Forth Bay

Last reported at 2017-Nov-14 22:17 UTC. Time now 2017-Nov-18 21:56 UTC.
Position N 01°23' E 104°25'.

Length 120 m; draft 7.4 m.

Type: Tanker. MMSI: 538003723.

Date/timePositionNaut miles runAvg speedWind from/ knotsBaromVisibWave heightAir tempDewpointWater temp
2017-Nov-14 22:17N 01°23' E 104°25'1810.5
2017-Nov-14 20:31N 01°15' E 104°08'111.7
2017-Nov-14 20:27N 01°15' E 104°08'511.7
2017-Nov-14 20:01N 01°15' E 104°02'611.9
2017-Nov-14 19:30N 01°13' E 103°57'612.1
2017-Nov-14 19:01N 01°11' E 103°51'612.3
2017-Nov-14 18:31N 01°08' E 103°46'612.5
2017-Nov-14 18:01N 01°04' E 103°41'5 9.8
2017-Nov-14 17:30N 01°04' E 103°36'5 9.1
2017-Nov-14 17:01N 01°08' E 103°33'510.4
2017-Nov-14 16:30N 01°11' E 103°38'4 7.4
2017-Nov-14 16:01N 01°11' E 103°42'1 1.3
2017-Nov-14 15:25N 01°11' E 103°42'0 0.0
2017-Nov-14 14:55N 01°11' E 103°42'0 0.0
2017-Nov-14 14:19N 01°11' E 103°42'0 0.0
2017-Nov-14 13:49N 01°11' E 103°42'0 0.1
2017-Nov-14 13:28N 01°11' E 103°42'0 0.0
2017-Nov-14 12:58N 01°11' E 103°42'0 0.0
2017-Nov-14 12:19N 01°11' E 103°42'0 0.2
2017-Nov-14 11:58N 01°11' E 103°42'0 0.1
2017-Nov-14 11:28N 01°11' E 103°42'0 0.0
2017-Nov-14 10:58N 01°11' E 103°42'0 0.1
2017-Nov-14 10:25N 01°11' E 103°42'0 0.1
2017-Nov-14 09:58N 01°11' E 103°42'0 0.0
2017-Nov-14 09:25N 01°11' E 103°42'0 0.2
2017-Nov-14 08:58N 01°11' E 103°42'0 0.0
2017-Nov-14 08:28N 01°11' E 103°42'0 0.0
2017-Nov-14 07:55N 01°11' E 103°42'0 0.0
2017-Nov-14 07:28N 01°11' E 103°42'0 0.1
2017-Nov-14 06:58N 01°11' E 103°42'1 3.1
2017-Nov-14 06:30N 01°12' E 103°41'5 9.3
2017-Nov-14 06:00N 01°13' E 103°36'3 6.9
2017-Nov-14 05:30N 01°11' E 103°33'2 3.3
2017-Nov-14 05:01N 01°10' E 103°32'3 6.8
2017-Nov-14 04:30N 01°10' E 103°28'711.0
2017-Nov-14 03:54N 01°13' E 103°23'  
Track history (hours):
 
Tides and Currents Weather Stations Pressure Air Temp Water Temp Dewpoint Dewpoint Depression Visibility Wind Speed Wind Dir Waves Ship Positions

Forth Bay

Last reported at 2017-Nov-14 22:17 UTC. Time now 2017-Nov-18 21:56 UTC.
Position N 01°23' E 104°25'.

Length 120 m; draft 7.4 m.

Type: Tanker. MMSI: 538003723.

Date/timePositionNaut miles runAvg speedWind from/ knotsBaromVisibWave heightAir tempDewpointWater temp
2017-Nov-14 22:17N 01°23' E 104°25'1810.5
2017-Nov-14 20:31N 01°15' E 104°08'111.7
2017-Nov-14 20:27N 01°15' E 104°08'511.7
2017-Nov-14 20:01N 01°15' E 104°02'611.9
2017-Nov-14 19:30N 01°13' E 103°57'612.1
2017-Nov-14 19:01N 01°11' E 103°51'612.3
2017-Nov-14 18:31N 01°08' E 103°46'612.5
2017-Nov-14 18:01N 01°04' E 103°41'5 9.8
2017-Nov-14 17:30N 01°04' E 103°36'5 9.1
2017-Nov-14 17:01N 01°08' E 103°33'510.4
2017-Nov-14 16:30N 01°11' E 103°38'4 7.4
2017-Nov-14 16:01N 01°11' E 103°42'1 1.3
2017-Nov-14 15:25N 01°11' E 103°42'0 0.0
2017-Nov-14 14:55N 01°11' E 103°42'0 0.0
2017-Nov-14 14:19N 01°11' E 103°42'0 0.0
2017-Nov-14 13:49N 01°11' E 103°42'0 0.1
2017-Nov-14 13:28N 01°11' E 103°42'0 0.0
2017-Nov-14 12:58N 01°11' E 103°42'0 0.0
2017-Nov-14 12:19N 01°11' E 103°42'0 0.2
2017-Nov-14 11:58N 01°11' E 103°42'0 0.1
2017-Nov-14 11:28N 01°11' E 103°42'0 0.0
2017-Nov-14 10:58N 01°11' E 103°42'0 0.1
2017-Nov-14 10:25N 01°11' E 103°42'0 0.1
2017-Nov-14 09:58N 01°11' E 103°42'0 0.0
2017-Nov-14 09:25N 01°11' E 103°42'0 0.2
2017-Nov-14 08:58N 01°11' E 103°42'0 0.0
2017-Nov-14 08:28N 01°11' E 103°42'0 0.0
2017-Nov-14 07:55N 01°11' E 103°42'0 0.0
2017-Nov-14 07:28N 01°11' E 103°42'0 0.1
2017-Nov-14 06:58N 01°11' E 103°42'1 3.1
2017-Nov-14 06:30N 01°12' E 103°41'5 9.3
2017-Nov-14 06:00N 01°13' E 103°36'3 6.9
2017-Nov-14 05:30N 01°11' E 103°33'2 3.3
2017-Nov-14 05:01N 01°10' E 103°32'3 6.8
2017-Nov-14 04:30N 01°10' E 103°28'711.0
2017-Nov-14 03:54N 01°13' E 103°23'  

Dump ship's entire track history